createdAt,value
2022-10-13T00:01:12.323Z,80.42
2022-10-13T00:03:42.039Z,79.43
2022-10-13T00:06:10.948Z,80.23
2022-10-13T00:08:39.683Z,79.59
2022-10-13T00:11:19.725Z,80.22
2022-10-13T00:13:48.093Z,80.50
2022-10-13T00:16:18.423Z,79.95
2022-10-13T00:18:46.804Z,80.30
2022-10-13T00:21:17.425Z,79.82
2022-10-13T00:23:47.046Z,79.03
2022-10-13T00:26:20.313Z,78.91
2022-10-13T00:28:52.216Z,79.18
2022-10-13T00:31:22.644Z,79.46
2022-10-13T00:33:51.024Z,79.75
2022-10-13T00:36:20.633Z,82.06
2022-10-13T00:38:48.456Z,80.71
2022-10-13T00:41:16.836Z,79.87
2022-10-13T00:44:27.834Z,79.87
2022-10-13T00:46:56.013Z,82.50
2022-10-13T00:49:23.933Z,82.24
2022-10-13T00:51:51.744Z,79.99
2022-10-13T00:54:23.914Z,81.04
2022-10-13T00:56:52.526Z,81.46
2022-10-13T00:59:23.459Z,80.86
2022-10-13T01:01:54.523Z,81.35
2022-10-13T01:04:25.012Z,83.16
2022-10-13T01:06:53.225Z,85.71
2022-10-13T01:09:21.029Z,83.44
2022-10-13T01:12:01.324Z,81.04
2022-10-13T01:14:42.595Z,79.79
2022-10-13T01:17:23.949Z,80.17
2022-10-13T01:20:16.483Z,79.47
2022-10-13T01:23:20.125Z,78.37
2022-10-13T01:26:05.816Z,78.31
2022-10-13T01:28:43.901Z,77.64
2022-10-13T01:31:28.354Z,79.62
2022-10-13T01:34:08.523Z,78.90
2022-10-13T01:36:55.193Z,80.54
2022-10-13T01:39:38.234Z,83.97
2022-10-13T01:42:18.915Z,83.43
2022-10-13T01:44:51.632Z,80.09
2022-10-13T01:47:19.694Z,80.36
2022-10-13T01:49:48.474Z,79.67
2022-10-13T01:52:18.551Z,79.20
2022-10-13T01:54:52.236Z,78.67
2022-10-13T01:57:37.044Z,79.32
2022-10-13T02:00:11.354Z,80.19
2022-10-13T02:03:17.684Z,80.09
2022-10-13T02:05:50.134Z,80.03
2022-10-13T02:08:35.924Z,79.71
2022-10-13T02:11:08.235Z,79.91
2022-10-13T02:13:37.064Z,81.98
2022-10-13T02:16:08.435Z,80.82
2022-10-13T02:18:37.133Z,79.13
2022-10-13T02:21:07.075Z,79.14
2022-10-13T02:23:35.096Z,80.67
2022-10-13T02:26:02.944Z,80.26
2022-10-13T02:28:31.119Z,78.70
2022-10-13T02:30:58.953Z,79.25
2022-10-13T02:33:26.676Z,86.65
2022-10-13T02:35:54.793Z,86.87
2022-10-13T02:38:22.644Z,82.77
2022-10-13T02:40:50.441Z,81.45
2022-10-13T02:43:18.564Z,80.57
2022-10-13T02:45:46.445Z,80.01
2022-10-13T02:48:14.316Z,80.48
2022-10-13T02:50:42.418Z,80.25
2022-10-13T02:53:10.124Z,83.14
2022-10-13T02:55:37.842Z,83.67
2022-10-13T02:58:05.912Z,80.37
2022-10-13T03:00:33.836Z,80.68
2022-10-13T03:03:01.739Z,79.46
2022-10-13T03:05:29.793Z,81.77
2022-10-13T03:07:57.773Z,82.09
2022-10-13T03:10:26.283Z,82.05
2022-10-13T03:12:56.043Z,78.72
2022-10-13T03:15:24.025Z,82.74
2022-10-13T03:17:55.393Z,80.37
2022-10-13T03:20:23.603Z,79.05
2022-10-13T03:22:51.334Z,78.88
2022-10-13T03:25:19.125Z,79.33
2022-10-13T03:27:47.244Z,83.20
2022-10-13T03:30:15.107Z,81.26
2022-10-13T03:32:42.924Z,79.47
2022-10-13T03:35:11.024Z,83.56
2022-10-13T03:37:38.854Z,83.14
2022-10-13T03:40:07.326Z,80.17
2022-10-13T03:42:36.866Z,79.47
2022-10-13T03:45:05.726Z,78.20
2022-10-13T03:47:38.213Z,78.47
2022-10-13T03:50:06.733Z,79.78
2022-10-13T03:52:34.514Z,81.31
2022-10-13T03:55:02.734Z,83.24
2022-10-13T03:57:30.967Z,80.73
2022-10-13T03:59:59.053Z,79.07
2022-10-13T04:02:27.853Z,78.57
2022-10-13T04:04:55.874Z,79.37
2022-10-13T04:07:23.584Z,83.02
2022-10-13T04:09:51.344Z,81.27
2022-10-13T04:12:21.110Z,81.46
2022-10-13T04:14:49.213Z,83.26
2022-10-13T04:17:16.905Z,80.66
2022-10-13T04:19:45.047Z,79.12
2022-10-13T04:22:12.715Z,81.90
2022-10-13T04:24:41.992Z,81.44
2022-10-13T04:27:10.477Z,81.67
2022-10-13T04:29:38.346Z,79.36
2022-10-13T04:32:06.103Z,81.74
2022-10-13T04:34:34.497Z,81.01
2022-10-13T04:37:02.382Z,78.49
2022-10-13T04:39:30.354Z,78.03
2022-10-13T04:41:58.534Z,79.42
2022-10-13T04:44:26.524Z,79.45
2022-10-13T04:46:54.248Z,79.32
2022-10-13T04:49:22.475Z,79.31
2022-10-13T04:51:50.575Z,80.81
2022-10-13T04:54:18.664Z,79.63
2022-10-13T04:56:47.095Z,79.52
2022-10-13T04:59:14.903Z,78.76
2022-10-13T05:01:42.744Z,80.57
2022-10-13T05:04:14.010Z,80.13
2022-10-13T05:07:05.223Z,79.82
2022-10-13T05:09:30.743Z,81.42
2022-10-13T05:11:58.553Z,83.11
2022-10-13T05:14:26.394Z,80.68
2022-10-13T05:16:54.473Z,78.87
2022-10-13T05:19:22.174Z,78.61
2022-10-13T05:21:50.306Z,80.82
2022-10-13T05:24:20.884Z,81.19
2022-10-13T05:26:50.253Z,79.04
2022-10-13T05:29:18.555Z,83.13
2022-10-13T05:31:46.373Z,81.98
2022-10-13T05:34:14.258Z,80.28
2022-10-13T05:36:42.317Z,78.56
2022-10-13T05:39:10.403Z,79.30
2022-10-13T05:41:39.408Z,79.19
2022-10-13T05:44:14.195Z,79.45
2022-10-13T05:46:44.773Z,80.70
2022-10-13T05:49:12.815Z,82.46
2022-10-13T05:51:44.695Z,81.88
2022-10-13T05:54:24.534Z,84.02
2022-10-13T05:56:56.544Z,85.85
2022-10-13T05:59:27.478Z,85.04
2022-10-13T06:01:55.616Z,76.52
2022-10-13T06:04:34.886Z,77.70
2022-10-13T06:07:03.764Z,75.98
2022-10-13T06:09:35.203Z,74.67
2022-10-13T06:12:03.169Z,73.76
2022-10-13T06:14:31.491Z,74.26
2022-10-13T06:16:59.596Z,75.03
2022-10-13T06:19:27.533Z,76.55
2022-10-13T06:21:57.976Z,77.14
2022-10-13T06:24:29.173Z,77.80
2022-10-13T06:26:57.653Z,77.43
2022-10-13T06:29:25.558Z,76.83
2022-10-13T06:31:53.524Z,75.71
2022-10-13T06:34:21.674Z,76.07
2022-10-13T06:36:49.505Z,75.44
2022-10-13T06:39:17.971Z,73.63
2022-10-13T06:41:46.154Z,73.65
2022-10-13T06:44:14.355Z,73.24
2022-10-13T06:46:42.266Z,74.36
2022-10-13T06:49:10.607Z,75.02
2022-10-13T06:51:38.639Z,70.78
2022-10-13T06:54:07.025Z,72.70
2022-10-13T06:56:35.323Z,70.96
2022-10-13T06:59:06.418Z,69.34
2022-10-13T07:01:37.928Z,71.44
2022-10-13T07:04:13.393Z,73.52
2022-10-13T07:06:41.692Z,73.60
2022-10-13T07:09:10.106Z,73.19
2022-10-13T07:11:39.258Z,72.60
2022-10-13T07:14:07.201Z,73.47
2022-10-13T07:16:35.489Z,72.86
2022-10-13T07:19:03.728Z,71.60
2022-10-13T07:21:32.369Z,69.52
2022-10-13T07:24:02.376Z,68.62
2022-10-13T07:26:30.353Z,68.86
2022-10-13T07:28:58.321Z,69.72
2022-10-13T07:31:27.047Z,69.09
2022-10-13T07:33:55.412Z,68.44
2022-10-13T07:36:27.686Z,66.24
2022-10-13T07:38:55.915Z,65.14
2022-10-13T07:41:23.723Z,63.62
2022-10-13T07:43:55.707Z,63.01
2022-10-13T07:46:25.980Z,62.02
2022-10-13T07:48:54.867Z,61.40
2022-10-13T07:51:23.221Z,59.15
2022-10-13T07:53:51.251Z,58.96
2022-10-13T07:56:19.302Z,59.32
2022-10-13T07:58:48.378Z,57.40
2022-10-13T08:01:17.307Z,57.74
2022-10-13T08:03:49.825Z,56.30
2022-10-13T08:06:19.526Z,56.11
2022-10-13T08:08:48.184Z,53.66
2022-10-13T08:11:17.962Z,53.36
2022-10-13T08:13:52.116Z,51.61
2022-10-13T08:16:22.642Z,46.36
2022-10-13T08:18:51.043Z,47.61
2022-10-13T08:24:17.704Z,44.13
2022-10-13T08:26:47.043Z,43.34
2022-10-13T08:29:24.145Z,44.65
2022-10-13T08:31:53.857Z,41.06
2022-10-13T08:34:25.555Z,41.38
2022-10-13T08:36:56.673Z,39.10
2022-10-13T08:39:25.874Z,40.75
2022-10-13T08:41:55.211Z,38.73
2022-10-13T08:45:10.902Z,36.28
2022-10-13T08:47:25.364Z,39.76
2022-10-13T08:50:00.335Z,40.18
2022-10-13T08:52:43.144Z,38.84
2022-10-13T08:55:32.262Z,39.49
2022-10-13T08:58:02.403Z,37.11
2022-10-13T09:00:30.944Z,35.56
2022-10-13T09:03:17.029Z,37.33
2022-10-13T09:05:47.462Z,36.66
2022-10-13T09:08:20.265Z,36.22
2022-10-13T09:10:50.646Z,38.98
2022-10-13T09:13:20.703Z,39.29
2022-10-13T09:15:53.062Z,36.73
2022-10-13T09:18:28.828Z,35.46
2022-10-13T09:21:11.647Z,35.40
2022-10-13T09:23:41.897Z,34.60
2022-10-13T09:26:18.415Z,35.28
2022-10-13T09:28:46.937Z,35.42
2022-10-13T09:31:24.753Z,32.26
2022-10-13T09:34:03.555Z,33.97
2022-10-13T09:36:31.796Z,33.19
2022-10-13T09:39:14.885Z,32.93
2022-10-13T09:41:45.630Z,31.23
2022-10-13T09:44:17.095Z,32.59
2022-10-13T09:46:58.165Z,31.82
2022-10-13T09:49:34.974Z,32.88
2022-10-13T09:52:14.122Z,32.37
2022-10-13T09:55:32.004Z,34.25
2022-10-13T09:58:16.811Z,32.85
2022-10-13T10:00:45.587Z,34.82
2022-10-13T10:03:29.208Z,33.78
2022-10-13T10:06:01.694Z,34.92
2022-10-13T10:09:02.624Z,35.62
2022-10-13T10:11:39.484Z,35.91
2022-10-13T10:14:27.182Z,32.83
2022-10-13T10:17:17.044Z,32.49
2022-10-13T10:19:51.376Z,35.47
2022-10-13T10:22:25.326Z,32.65
2022-10-13T10:25:09.270Z,35.34
2022-10-13T10:27:43.878Z,32.80
2022-10-13T10:30:18.206Z,36.02
2022-10-13T10:32:57.924Z,34.33
2022-10-13T10:35:49.544Z,32.96
2022-10-13T10:38:44.737Z,33.03
2022-10-13T10:41:50.215Z,34.07
2022-10-13T10:44:21.920Z,34.74
2022-10-13T10:46:51.107Z,34.79
2022-10-13T10:49:26.135Z,34.73
2022-10-13T10:51:54.984Z,33.87
2022-10-13T10:54:31.754Z,35.20
2022-10-13T10:57:18.587Z,37.43
2022-10-13T11:00:01.148Z,36.19
2022-10-13T11:02:35.416Z,34.22
2022-10-13T11:05:06.351Z,35.24
2022-10-13T11:07:34.754Z,34.50
2022-10-13T11:10:13.913Z,33.42
2022-10-13T11:12:51.301Z,32.39
2022-10-13T11:15:22.037Z,32.90
2022-10-13T11:17:50.696Z,32.86
2022-10-13T11:20:21.544Z,32.05
2022-10-13T11:22:58.524Z,32.23
2022-10-13T11:25:40.348Z,31.80
2022-10-13T11:28:40.405Z,33.09
2022-10-13T11:31:14.334Z,32.92
2022-10-13T11:33:42.096Z,33.18
2022-10-13T11:36:44.112Z,34.65
2022-10-13T11:39:27.987Z,33.37
2022-10-13T11:42:04.144Z,34.25
2022-10-13T11:44:34.755Z,34.38
2022-10-13T11:47:19.772Z,34.96
2022-10-13T11:49:51.937Z,32.72
2022-10-13T11:52:48.164Z,33.45
2022-10-13T11:55:29.259Z,35.45
2022-10-13T11:58:10.814Z,34.77
2022-10-13T12:00:38.659Z,34.28
2022-10-13T12:03:21.794Z,35.78
2022-10-13T12:05:50.622Z,37.44
2022-10-13T12:08:21.153Z,36.79
2022-10-13T12:10:55.183Z,37.71
2022-10-13T12:13:29.209Z,36.05
2022-10-13T12:16:03.866Z,37.53
2022-10-13T12:18:40.085Z,36.45
2022-10-13T12:21:17.588Z,36.50
2022-10-13T12:23:46.506Z,38.92
2022-10-13T12:26:27.444Z,37.93
2022-10-13T12:29:02.505Z,38.46
2022-10-13T12:31:38.970Z,39.76
2022-10-13T12:37:07.258Z,41.01
2022-10-13T12:39:37.211Z,40.14
2022-10-13T12:42:08.160Z,41.96
2022-10-13T12:44:38.885Z,38.73
2022-10-13T12:47:39.945Z,41.01
2022-10-13T12:50:38.862Z,41.57
2022-10-13T12:53:14.783Z,40.74
2022-10-13T12:55:53.626Z,40.94
2022-10-13T12:58:43.624Z,41.09
2022-10-13T13:01:14.589Z,39.72
2022-10-13T13:03:43.877Z,42.25
2022-10-13T13:06:14.654Z,40.75
2022-10-13T13:08:43.560Z,42.45
2022-10-13T13:11:23.967Z,41.59
2022-10-13T13:14:31.513Z,41.65
2022-10-13T13:17:56.768Z,42.69
2022-10-13T13:20:28.923Z,42.70
2022-10-13T13:22:56.888Z,42.33
2022-10-13T13:25:25.973Z,42.22
2022-10-13T13:27:53.916Z,41.28
2022-10-13T13:30:23.754Z,43.60
2022-10-13T13:33:07.726Z,42.34
2022-10-13T13:35:38.272Z,44.62
2022-10-13T13:38:06.585Z,44.20
2022-10-13T13:40:34.651Z,45.41
2022-10-13T13:43:03.016Z,45.03
2022-10-13T13:45:31.764Z,44.67
2022-10-13T13:48:04.046Z,43.41
2022-10-13T13:50:36.646Z,42.86
2022-10-13T13:53:05.222Z,43.72
2022-10-13T13:55:33.666Z,45.00
2022-10-13T13:58:01.654Z,42.40
2022-10-13T14:00:29.803Z,43.38
2022-10-13T14:02:58.379Z,44.20
2022-10-13T14:05:26.398Z,44.96
2022-10-13T14:07:56.984Z,44.43
2022-10-13T14:10:26.077Z,43.51
2022-10-13T14:12:54.194Z,44.50
2022-10-13T14:15:25.784Z,44.63
2022-10-13T14:17:57.108Z,45.28
2022-10-13T14:20:25.027Z,44.45
2022-10-13T14:22:52.974Z,44.38
2022-10-13T14:25:21.417Z,46.53
2022-10-13T14:27:49.777Z,45.10
2022-10-13T14:30:17.732Z,46.85
2022-10-13T14:32:46.037Z,48.70
2022-10-13T14:35:14.076Z,47.36
2022-10-13T14:37:42.013Z,45.16
2022-10-13T14:40:10.693Z,45.05
2022-10-13T14:42:46.779Z,47.41
2022-10-13T14:45:18.078Z,48.49
2022-10-13T14:47:46.272Z,49.51
2022-10-13T14:50:23.484Z,46.44
2022-10-13T14:52:56.734Z,48.68
2022-10-13T14:55:28.165Z,49.64
2022-10-13T14:57:56.614Z,49.25
2022-10-13T15:00:45.405Z,48.72
2022-10-13T15:03:24.884Z,51.57
2022-10-13T15:05:55.203Z,50.56
2022-10-13T15:08:26.673Z,51.42
2022-10-13T15:11:17.555Z,53.15
2022-10-13T15:13:46.844Z,54.12
2022-10-13T15:16:32.128Z,54.43
2022-10-13T15:19:09.929Z,56.87
2022-10-13T15:21:39.950Z,56.73
2022-10-13T15:24:09.332Z,57.77
2022-10-13T15:26:37.253Z,58.10
2022-10-13T15:29:05.560Z,59.57
2022-10-13T15:31:33.811Z,56.62
2022-10-13T15:34:02.401Z,56.85
2022-10-13T15:36:30.440Z,57.57
2022-10-13T15:38:58.735Z,59.27
2022-10-13T15:41:27.040Z,60.23
2022-10-13T15:43:54.998Z,61.79
2022-10-13T15:46:24.455Z,62.44
2022-10-13T15:48:53.610Z,64.03
2022-10-13T15:51:24.339Z,64.82
2022-10-13T15:53:52.700Z,65.76
2022-10-13T15:56:20.780Z,66.92
2022-10-13T15:58:48.769Z,67.73
2022-10-13T16:01:17.267Z,69.12
2022-10-13T16:03:45.766Z,69.07
2022-10-13T16:06:14.561Z,69.57
2022-10-13T16:08:44.500Z,70.52
2022-10-13T16:11:14.960Z,71.14
2022-10-13T16:13:46.625Z,71.87
2022-10-13T16:16:16.480Z,72.32
2022-10-13T16:18:47.736Z,71.17
2022-10-13T16:21:19.478Z,72.20
2022-10-13T16:23:48.383Z,72.75
2022-10-13T16:26:20.318Z,73.91
2022-10-13T16:28:48.518Z,76.91
2022-10-13T16:31:18.061Z,73.25
2022-10-13T16:33:46.191Z,72.93
2022-10-13T16:36:19.210Z,73.68
2022-10-13T16:38:48.701Z,72.76
2022-10-13T16:41:18.495Z,73.69
2022-10-13T16:43:47.186Z,74.92
2022-10-13T16:46:17.802Z,75.01
2022-10-13T16:48:47.039Z,75.77
2022-10-13T16:51:20.336Z,78.23
2022-10-13T16:53:52.281Z,77.78
2022-10-13T16:56:24.729Z,76.36
2022-10-13T16:58:58.090Z,77.13
2022-10-13T17:01:26.902Z,76.05
2022-10-13T17:03:55.141Z,78.65
2022-10-13T17:06:24.966Z,77.34
2022-10-13T17:08:55.530Z,79.11
2022-10-13T17:11:26.404Z,78.92
2022-10-13T17:13:57.158Z,78.52
2022-10-13T17:16:25.311Z,76.52
2022-10-13T17:18:53.952Z,77.64
2022-10-13T17:21:22.450Z,77.19
2022-10-13T17:23:50.520Z,77.45
2022-10-13T17:26:20.923Z,78.01
2022-10-13T17:28:49.513Z,79.39
2022-10-13T17:31:22.590Z,78.47
2022-10-13T17:33:52.134Z,81.96
2022-10-13T17:36:26.091Z,81.37
2022-10-13T17:38:56.131Z,78.28
2022-10-13T17:41:24.931Z,78.87
2022-10-13T17:43:52.947Z,79.20
2022-10-13T17:46:36.151Z,78.40
2022-10-13T17:49:09.981Z,80.93
2022-10-13T17:51:39.114Z,80.27
2022-10-13T17:54:14.482Z,80.47
2022-10-13T17:56:44.621Z,79.17
2022-10-13T17:59:14.743Z,78.94
2022-10-13T18:01:43.406Z,80.66
2022-10-13T18:04:14.452Z,78.25
2022-10-13T18:06:46.526Z,79.11
2022-10-13T18:09:18.033Z,79.56
2022-10-13T18:11:50.667Z,80.39
2022-10-13T18:14:21.143Z,78.66
2022-10-13T18:16:52.700Z,79.66
2022-10-13T18:19:22.062Z,81.42
2022-10-13T18:21:50.352Z,80.59
2022-10-13T18:24:20.062Z,82.66
2022-10-13T18:26:48.702Z,82.31
2022-10-13T18:29:16.990Z,80.35
2022-10-13T18:31:44.931Z,81.11
2022-10-13T18:34:16.310Z,80.49
2022-10-13T18:36:50.641Z,78.68
2022-10-13T18:39:22.979Z,77.83
2022-10-13T18:41:52.340Z,78.97
2022-10-13T18:44:21.332Z,79.27
2022-10-13T18:46:50.962Z,78.20
2022-10-13T18:49:21.694Z,80.76
2022-10-13T18:51:51.785Z,79.02
2022-10-13T18:54:19.823Z,78.91
2022-10-13T18:56:47.784Z,79.19
2022-10-13T18:59:17.960Z,80.68
2022-10-13T19:01:47.091Z,81.41
2022-10-13T19:04:17.127Z,80.61
2022-10-13T19:06:45.085Z,80.68
2022-10-13T19:09:15.113Z,79.91
2022-10-13T19:11:43.908Z,80.14
2022-10-13T19:14:13.696Z,80.30
2022-10-13T19:16:43.014Z,80.09
2022-10-13T19:19:13.342Z,80.96
2022-10-13T19:21:41.661Z,81.31
2022-10-13T19:24:10.764Z,80.28
2022-10-13T19:26:40.201Z,80.54
2022-10-13T19:29:10.687Z,81.86
2022-10-13T19:31:40.010Z,83.05
2022-10-13T19:34:08.770Z,84.74
2022-10-13T19:36:42.339Z,83.48
2022-10-13T19:39:22.816Z,82.53
2022-10-13T19:41:53.923Z,81.92
2022-10-13T19:44:24.024Z,81.99
2022-10-13T19:46:52.632Z,80.82
2022-10-13T19:49:22.049Z,80.66
2022-10-13T19:51:51.538Z,81.31
2022-10-13T19:54:22.349Z,82.46
2022-10-13T19:56:51.125Z,82.70
2022-10-13T19:59:19.370Z,82.77
2022-10-13T20:01:47.744Z,82.48
2022-10-13T20:04:18.731Z,82.70
2022-10-13T20:06:48.180Z,83.06
2022-10-13T20:09:17.261Z,82.20
2022-10-13T20:11:46.694Z,82.21
2022-10-13T20:14:15.042Z,83.13
2022-10-13T20:16:43.422Z,82.52
2022-10-13T20:19:16.742Z,81.78
2022-10-13T20:21:48.192Z,83.04
2022-10-13T20:24:16.174Z,82.61
2022-10-13T20:26:44.092Z,81.57
2022-10-13T20:29:12.399Z,82.10
2022-10-13T20:31:40.228Z,81.04
2022-10-13T20:34:10.142Z,80.52
2022-10-13T20:36:39.211Z,80.31
2022-10-13T20:39:09.395Z,80.10
2022-10-13T20:41:37.310Z,81.08
2022-10-13T20:44:05.540Z,82.35
2022-10-13T20:46:34.452Z,80.10
2022-10-13T20:49:11.384Z,79.12
2022-10-13T20:51:41.147Z,80.45
2022-10-13T20:54:10.334Z,79.68
2022-10-13T20:56:38.560Z,79.45
2022-10-13T20:59:08.781Z,79.56
2022-10-13T21:01:37.189Z,79.90
2022-10-13T21:04:05.412Z,81.72
2022-10-13T21:06:34.451Z,81.12
2022-10-13T21:09:04.360Z,80.92
2022-10-13T21:11:32.131Z,80.44
2022-10-13T21:14:00.329Z,80.90
2022-10-13T21:16:29.139Z,80.56
2022-10-13T21:18:57.710Z,81.56
2022-10-13T21:21:28.628Z,80.25
2022-10-13T21:23:59.188Z,79.54
2022-10-13T21:26:30.160Z,79.50
2022-10-13T21:28:58.186Z,80.93
2022-10-13T21:31:26.835Z,81.52
2022-10-13T21:33:55.780Z,81.34
2022-10-13T21:36:25.880Z,80.52
2022-10-13T21:38:59.403Z,80.70
2022-10-13T21:41:28.140Z,80.89
2022-10-13T21:43:56.301Z,81.52
2022-10-13T21:46:29.517Z,81.27
2022-10-13T21:48:59.632Z,81.96
2022-10-13T21:51:36.350Z,81.30
2022-10-13T21:54:08.699Z,80.48
2022-10-13T21:56:38.420Z,79.58
2022-10-13T21:59:07.121Z,80.10
2022-10-13T22:01:35.288Z,79.04
2022-10-13T22:04:10.460Z,79.79
2022-10-13T22:06:38.189Z,80.03
2022-10-13T22:09:06.685Z,79.85
2022-10-13T22:11:36.434Z,80.49
2022-10-13T22:14:07.078Z,80.79
2022-10-13T22:16:41.101Z,80.08
2022-10-13T22:19:09.051Z,80.39
2022-10-13T22:21:42.488Z,80.95
2022-10-13T22:24:13.094Z,80.69
2022-10-13T22:26:42.401Z,80.81
2022-10-13T22:29:12.472Z,81.21
2022-10-13T22:31:41.578Z,81.12
2022-10-13T22:34:10.940Z,81.15
2022-10-13T22:36:43.613Z,81.23
2022-10-13T22:39:13.472Z,81.52
2022-10-13T22:41:41.492Z,81.43
2022-10-13T22:44:09.251Z,80.95
2022-10-13T22:46:38.572Z,80.90
2022-10-13T22:49:07.721Z,80.32
2022-10-13T22:51:36.589Z,81.08
2022-10-13T22:54:05.345Z,80.92
2022-10-13T22:56:34.312Z,81.03
2022-10-13T22:59:05.111Z,82.95
2022-10-13T23:01:33.310Z,82.10
2022-10-13T23:04:01.589Z,80.44
2022-10-13T23:06:31.567Z,79.49
2022-10-13T23:09:06.401Z,79.80
2022-10-13T23:11:34.477Z,78.45
2022-10-13T23:14:03.930Z,80.53
2022-10-13T23:16:31.740Z,80.15
2022-10-13T23:18:59.571Z,80.91
2022-10-13T23:21:29.120Z,82.55
2022-10-13T23:24:02.221Z,82.00
2022-10-13T23:26:31.031Z,82.11
2022-10-13T23:28:59.183Z,81.85
2022-10-13T23:31:28.137Z,81.44
2022-10-13T23:33:56.519Z,83.07
2022-10-13T23:36:29.609Z,83.21
2022-10-13T23:39:05.097Z,82.88
2022-10-13T23:41:33.410Z,84.31
2022-10-13T23:44:01.609Z,83.14
2022-10-13T23:46:29.470Z,82.40
2022-10-13T23:48:57.638Z,81.60
2022-10-13T23:51:26.347Z,83.41
2022-10-13T23:53:54.523Z,83.05
2022-10-13T23:56:22.799Z,82.75
2022-10-13T23:58:51.178Z,83.47
